Time;durP1;ratioP1;P1;durP2;ratioP2;P2;SDS_P1;SDS_P2;PMS_P1;PMS_P2;Temp;Humidity;BMP_temperature;BMP_pressure;BME280_temperature;BME280_humidity;BME280_pressure;Samples;Min_cycle;Max_cycle;Signal;HPM_P1;HPM_P2
2021/01/02 00:02:10;;;;;;;65.33;30.03;;;;;;;0.28;75.64;98637.89;2174744;82;21122;-77
2021/01/02 00:05:11;;;;;;;84.10;36.37;;;;;;;0.28;75.78;98639.58;2175051;82;21389;-77
2021/01/02 00:08:12;;;;;;;74.80;33.87;;;;;;;0.26;75.75;98639.91;2174869;82;21158;-77
2021/01/02 00:11:15;;;;;;;75.30;35.37;;;;;;;0.26;75.71;98636.06;2175410;81;21122;-77
2021/01/02 00:14:16;;;;;;;73.00;34.70;;;;;;;0.26;75.76;98640.78;2175359;81;21126;-78
2021/01/02 00:17:17;;;;;;;75.37;34.47;;;;;;;0.30;75.78;98640.53;2175394;81;21114;-78
2021/01/02 00:20:18;;;;;;;78.57;34.47;;;;;;;0.39;75.82;98647.80;2175074;82;21087;-77
2021/01/02 00:23:19;;;;;;;73.20;33.07;;;;;;;0.40;75.60;98653.41;2175159;82;21110;-77
2021/01/02 00:26:20;;;;;;;74.43;32.40;;;;;;;0.40;75.57;98662.00;2174863;82;21396;-77
2021/01/02 00:29:24;;;;;;;76.00;34.37;;;;;;;0.40;75.54;98668.41;2175237;81;21250;-77
2021/01/02 00:32:25;;;;;;;76.93;34.37;;;;;;;0.41;75.44;98668.89;2181597;81;21265;-78
2021/01/02 00:35:26;;;;;;;77.33;35.93;;;;;;;0.42;75.42;98674.51;2178821;81;21126;-78
2021/01/02 00:38:27;;;;;;;91.60;40.40;;;;;;;0.41;75.42;98668.89;2175317;82;21075;-77
2021/01/02 00:41:28;;;;;;;80.30;35.33;;;;;;;0.43;75.37;98664.71;2175262;82;21138;-77
2021/01/02 00:44:29;;;;;;;83.37;36.63;;;;;;;0.42;75.27;98666.80;2175467;82;21364;-77
2021/01/02 00:47:30;;;;;;;83.60;37.13;;;;;;;0.38;75.30;98678.13;2175404;82;21114;-77
2021/01/02 00:50:31;;;;;;;90.00;39.53;;;;;;;0.38;75.42;98681.58;2175325;82;21126;-77
2021/01/02 00:53:33;;;;;;;82.60;37.67;;;;;;;0.40;75.45;98684.23;2175591;82;21126;-77
2021/01/02 00:56:34;;;;;;;80.37;35.63;;;;;;;0.39;75.34;98691.05;2175518;82;21127;-77
2021/01/02 00:59:35;;;;;;;91.40;39.57;;;;;;;0.38;75.37;98692.26;2175335;82;21107;-77
2021/01/02 01:02:36;;;;;;;88.00;39.07;;;;;;;0.37;75.38;98697.80;2175297;82;21440;-78
2021/01/02 01:05:37;;;;;;;85.50;37.93;;;;;;;0.37;75.45;98705.50;2175461;82;21110;-78
2021/01/02 01:08:38;;;;;;;86.90;37.00;;;;;;;0.39;75.39;98706.86;2175689;82;21546;-77
2021/01/02 01:11:39;;;;;;;84.97;37.63;;;;;;;0.41;75.36;98708.70;2175612;82;21147;-77
2021/01/02 01:14:40;;;;;;;88.87;37.77;;;;;;;0.40;75.38;98709.50;2175406;82;21083;-77
2021/01/02 01:17:44;;;;;;;74.23;32.70;;;;;;;0.40;75.37;98708.62;2175827;82;21118;-78
2021/01/02 01:20:45;;;;;;;85.03;36.70;;;;;;;0.36;75.26;98718.27;2175894;82;21118;-78
2021/01/02 01:23:49;;;;;;;84.87;35.97;;;;;;;0.29;75.36;98719.24;2175452;82;21392;-77
2021/01/02 01:26:50;;;;;;;78.63;36.20;;;;;;;0.27;75.35;98718.69;2175715;82;21122;-77
2021/01/02 01:29:51;;;;;;;76.00;35.20;;;;;;;0.24;75.37;98717.25;2175522;80;21166;-77
2021/01/02 01:32:52;;;;;;;83.67;37.37;;;;;;;0.23;75.45;98716.77;2175364;82;21131;-77
2021/01/02 01:35:53;;;;;;;81.90;37.87;;;;;;;0.20;75.55;98719.19;2175076;82;21130;-78
2021/01/02 01:38:55;;;;;;;84.17;36.03;;;;;;;0.20;75.53;98714.93;2175448;82;21122;-77
2021/01/02 01:41:56;;;;;;;86.20;35.93;;;;;;;0.20;75.59;98710.20;2175361;82;21142;-78
2021/01/02 01:44:57;;;;;;;88.13;38.33;;;;;;;0.22;75.67;98705.63;2175277;82;21122;-78
2021/01/02 01:47:58;;;;;;;79.60;34.10;;;;;;;0.22;75.62;98706.91;2175069;82;21169;-76
2021/01/02 01:50:59;;;;;;;92.73;38.57;;;;;;;0.19;75.63;98701.62;2175217;82;21122;-77
2021/01/02 01:54:03;;;;;;;97.87;40.77;;;;;;;0.18;75.73;98707.56;2175449;82;21102;-77
2021/01/02 01:57:04;;;;;;;83.23;35.87;;;;;;;0.21;75.70;98703.86;2175121;82;21130;-77
2021/01/02 02:00:08;;;;;;;92.37;39.77;;;;;;;0.20;75.61;98702.09;2175034;82;21083;-78
2021/01/02 02:03:09;;;;;;;87.53;35.75;;;;;;;0.18;75.71;98702.83;2175328;82;21118;-77
2021/01/02 02:06:13;;;;;;;80.80;35.67;;;;;;;0.18;75.63;98705.39;2175145;82;21118;-77
2021/01/02 02:09:14;;;;;;;73.47;33.17;;;;;;;0.13;75.67;98697.86;2175023;82;21428;-77
2021/01/02 02:12:15;;;;;;;78.87;36.20;;;;;;;0.12;75.77;98701.23;2175191;82;21142;-77
2021/01/02 02:15:16;;;;;;;77.93;34.50;;;;;;;0.14;75.87;98703.48;2175288;82;21091;-77
2021/01/02 02:18:17;;;;;;;81.13;35.40;;;;;;;0.17;75.84;98703.63;2175172;82;21125;-77
2021/01/02 02:21:18;;;;;;;71.60;31.47;;;;;;;0.19;75.78;98707.16;2175224;82;21130;-76
2021/01/02 02:24:20;;;;;;;68.87;32.57;;;;;;;0.19;75.66;98704.19;2175285;82;21397;-77
2021/01/02 02:27:21;;;;;;;76.20;32.80;;;;;;;0.18;75.66;98704.11;2175180;82;21114;-77
2021/01/02 02:30:22;;;;;;;70.30;32.23;;;;;;;0.19;75.67;98704.59;2175089;81;21226;-77
2021/01/02 02:33:23;;;;;;;68.23;32.67;;;;;;;0.23;75.59;98703.53;2175231;82;21086;-78
2021/01/02 02:36:26;;;;;;;73.40;33.90;;;;;;;0.16;75.37;98692.48;2175312;82;21134;-77
2021/01/02 02:39:27;;;;;;;66.33;30.50;;;;;;;0.11;75.62;98702.92;2175284;82;21074;-78
2021/01/02 02:42:28;;;;;;;69.23;29.97;;;;;;;0.08;75.59;98700.60;2175304;82;21439;-77
2021/01/02 02:45:29;;;;;;;66.10;31.63;;;;;;;0.06;75.66;98703.49;2175116;82;21126;-77
2021/01/02 02:48:31;;;;;;;73.37;31.63;;;;;;;-0.01;75.63;98707.00;2175043;82;21193;-77
2021/01/02 02:51:32;;;;;;;64.10;30.10;;;;;;;-0.04;75.73;98713.26;2175123;82;21389;-78
2021/01/02 02:54:33;;;;;;;80.37;32.97;;;;;;;-0.08;75.80;98703.64;2175244;82;21130;-77
2021/01/02 02:57:34;;;;;;;70.17;31.57;;;;;;;-0.09;75.87;98702.28;2175078;82;21400;-76
2021/01/02 03:00:35;;;;;;;74.17;31.80;;;;;;;-0.17;75.83;98703.17;2175142;82;21114;-77
2021/01/02 03:03:36;;;;;;;76.97;31.43;;;;;;;-0.23;75.97;98700.70;2175206;82;21138;-77
2021/01/02 03:06:40;;;;;;;86.33;33.43;;;;;;;-0.28;76.24;98713.69;2175152;82;21130;-78
2021/01/02 03:09:41;;;;;;;86.00;34.40;;;;;;;-0.30;76.37;98705.91;2175293;82;21156;-77
2021/01/02 03:12:42;;;;;;;85.20;35.10;;;;;;;-0.30;76.40;98707.19;2175339;82;21360;-78
2021/01/02 03:15:43;;;;;;;86.73;34.90;;;;;;;-0.26;76.47;98705.67;2175185;82;21130;-78
2021/01/02 03:18:45;;;;;;;84.00;35.67;;;;;;;-0.22;76.43;98708.47;2175262;82;21122;-77
2021/01/02 03:21:45;;;;;;;81.10;35.03;;;;;;;-0.17;76.31;98703.58;2174995;82;21115;-77
2021/01/02 03:24:47;;;;;;;87.73;35.47;;;;;;;-0.20;76.28;98700.85;2175260;82;21149;-77
2021/01/02 03:27:48;;;;;;;82.37;35.77;;;;;;;-0.13;76.38;98709.34;2175031;82;21154;-77
2021/01/02 03:30:49;;;;;;;67.00;31.27;;;;;;;-0.11;76.18;98707.34;2175261;81;21158;-77
2021/01/02 03:33:50;;;;;;;66.53;28.83;;;;;;;-0.17;75.96;98702.30;2175120;82;21095;-77
2021/01/02 03:36:51;;;;;;;76.30;33.33;;;;;;;-0.26;76.12;98709.52;2175368;82;21102;-77
2021/01/02 03:39:52;;;;;;;63.87;31.03;;;;;;;-0.28;76.23;98711.13;2175196;82;21086;-77
2021/01/02 03:42:56;;;;;;;65.07;29.87;;;;;;;-0.26;76.21;98714.25;2175484;82;21110;-78
2021/01/02 03:45:57;;;;;;;71.33;32.47;;;;;;;-0.27;76.19;98716.33;2175698;82;21333;-77
2021/01/02 03:48:58;;;;;;;66.23;29.70;;;;;;;-0.29;76.35;98721.78;2175114;82;21194;-77
2021/01/02 03:51:59;;;;;;;78.57;34.37;;;;;;;-0.33;76.24;98720.74;2175022;82;21118;-77
2021/01/02 03:55:03;;;;;;;71.73;31.70;;;;;;;-0.34;76.33;98716.41;2175743;82;21187;-77
2021/01/02 03:58:04;;;;;;;77.90;31.73;;;;;;;-0.33;76.40;98723.70;2175398;82;21113;-77
2021/01/02 04:01:08;;;;;;;81.23;35.57;;;;;;;-0.31;76.36;98719.53;2175112;82;21126;-77
2021/01/02 04:04:09;;;;;;;83.47;35.77;;;;;;;-0.28;76.46;98715.84;2175172;82;21114;-77
2021/01/02 04:07:10;;;;;;;80.10;34.70;;;;;;;-0.26;76.28;98714.25;2174953;82;21264;-77
2021/01/02 04:10:11;;;;;;;72.47;34.27;;;;;;;-0.24;76.32;98715.61;2174974;82;21436;-77
2021/01/02 04:13:12;;;;;;;69.30;31.13;;;;;;;-0.23;76.26;98707.98;2175156;82;21114;-77
2021/01/02 04:16:13;;;;;;;74.10;32.73;;;;;;;-0.19;76.26;98710.31;2175426;82;21118;-77
2021/01/02 04:19:14;;;;;;;68.77;30.63;;;;;;;-0.19;76.15;98706.47;2175034;82;21245;-77
2021/01/02 04:22:15;;;;;;;72.57;31.90;;;;;;;-0.18;76.26;98710.79;2175266;82;21122;-78
2021/01/02 04:25:19;;;;;;;73.73;31.13;;;;;;;-0.17;76.16;98709.59;2175218;82;21424;-78
2021/01/02 04:28:20;;;;;;;68.07;31.07;;;;;;;-0.13;76.16;98723.05;2174923;82;21546;-78
2021/01/02 04:31:21;;;;;;;65.53;32.17;;;;;;;-0.09;76.11;98715.99;2167683;81;21175;-77
2021/01/02 04:34:22;;;;;;;68.40;31.23;;;;;;;-0.07;76.10;98720.80;2149099;83;21421;-77
2021/01/02 04:37:26;;;;;;;66.80;28.33;;;;;;;-0.01;76.05;98733.06;2149160;83;21245;-78
2021/01/02 04:40:27;;;;;;;72.60;32.10;;;;;;;0.04;75.96;98725.23;2149306;82;21111;-78
2021/01/02 04:43:31;;;;;;;71.93;32.03;;;;;;;0.09;75.92;98732.77;2149846;83;21091;-77
2021/01/02 04:46:32;;;;;;;72.37;30.73;;;;;;;0.08;75.85;98735.25;2149249;83;21503;-77
2021/01/02 04:49:33;;;;;;;79.60;34.30;;;;;;;0.09;75.89;98739.58;2149315;83;21278;-77
2021/01/02 04:52:34;;;;;;;80.07;33.57;;;;;;;0.09;75.89;98737.02;2151394;83;21213;-78
2021/01/02 04:55:35;;;;;;;81.07;35.17;;;;;;;0.10;75.88;98740.06;2152129;82;21184;-77
2021/01/02 04:58:36;;;;;;;79.87;36.17;;;;;;;0.10;75.94;98742.63;2152006;82;21388;-78
2021/01/02 05:01:37;;;;;;;77.67;34.57;;;;;;;0.15;76.06;98742.05;2152151;82;21239;-78
2021/01/02 05:04:38;;;;;;;94.90;38.70;;;;;;;0.21;75.91;98735.95;2152045;82;21122;-77
2021/01/02 05:07:39;;;;;;;86.17;38.60;;;;;;;0.23;75.87;98735.63;2151643;82;21130;-77
2021/01/02 05:10:40;;;;;;;87.67;37.83;;;;;;;0.26;75.80;98740.03;2152095;82;21123;-78
2021/01/02 05:13:43;;;;;;;82.07;34.77;;;;;;;0.30;75.76;98739.38;2151906;82;21143;-78
2021/01/02 05:16:45;;;;;;;80.60;36.10;;;;;;;0.33;75.61;98745.95;2152096;82;21135;-78
2021/01/02 05:19:46;;;;;;;81.17;35.30;;;;;;;0.34;75.70;98747.71;2151981;82;21123;-77
2021/01/02 05:22:47;;;;;;;78.17;35.20;;;;;;;0.39;75.58;98757.81;2151977;82;21389;-77
2021/01/02 05:25:51;;;;;;;74.53;34.57;;;;;;;0.38;75.50;98756.05;2152049;82;21120;-77
2021/01/02 05:28:52;;;;;;;82.33;36.37;;;;;;;0.46;75.61;98762.84;2151805;82;21162;-78
2021/01/02 05:31:53;;;;;;;75.43;35.53;;;;;;;0.53;75.44;98760.66;2164700;81;21152;-78
2021/01/02 05:34:54;;;;;;;74.50;33.63;;;;;;;0.54;75.34;98758.57;2181580;81;21126;-77
2021/01/02 05:37:55;;;;;;;79.87;36.60;;;;;;;0.55;75.24;98760.73;2175053;82;21134;-78
2021/01/02 05:40:58;;;;;;;86.67;37.33;;;;;;;0.56;75.35;98763.38;2174990;82;21118;-78
2021/01/02 05:43:59;;;;;;;80.10;36.10;;;;;;;0.58;75.33;98772.05;2175207;82;21463;-77
2021/01/02 05:47:00;;;;;;;70.90;33.30;;;;;;;0.59;75.32;98763.53;2175355;82;21355;-78
2021/01/02 05:50:02;;;;;;;81.27;37.60;;;;;;;0.61;75.30;98763.61;2175482;82;21182;-79
2021/01/02 05:53:03;;;;;;;84.27;36.07;;;;;;;0.62;75.59;98772.67;2175392;82;21436;-78
2021/01/02 05:56:04;;;;;;;83.53;36.07;;;;;;;0.61;75.35;98764.48;2175245;82;21129;-78
2021/01/02 05:59:05;;;;;;;77.23;35.90;;;;;;;0.62;75.35;98762.80;2175576;82;21118;-80
2021/01/02 06:02:06;;;;;;;81.60;36.20;;;;;;;0.56;75.41;98764.66;2175933;82;21114;-78
2021/01/02 06:05:07;;;;;;;84.83;35.83;;;;;;;0.58;75.44;98763.45;2176053;82;21102;-81
2021/01/02 06:08:08;;;;;;;75.40;35.07;;;;;;;0.61;75.68;98772.20;2175969;82;21276;-80
2021/01/02 06:11:12;;;;;;;87.13;37.57;;;;;;;1.47;77.53;98768.20;2175969;82;21122;-80
2021/01/02 06:14:13;;;;;;;87.57;38.40;;;;;;;1.36;75.39;98765.54;2175898;82;21106;-80
2021/01/02 06:17:14;;;;;;;78.27;35.50;;;;;;;1.21;75.01;98742.97;2174931;82;21143;-80
2021/01/02 06:20:15;;;;;;;77.27;35.50;;;;;;;1.12;75.08;98743.42;2175417;82;21123;-79
2021/01/02 06:23:16;;;;;;;76.60;35.00;;;;;;;0.98;75.11;98761.57;2175303;82;21404;-79
2021/01/02 06:26:17;;;;;;;65.77;31.27;;;;;;;0.90;75.15;98745.78;2175768;82;21236;-79
2021/01/02 06:29:18;;;;;;;61.33;29.27;;;;;;;0.82;75.32;98764.66;2175444;82;21154;-78
2021/01/02 06:32:20;;;;;;;68.57;31.77;;;;;;;0.76;75.42;98760.50;2175417;81;21427;-78
2021/01/02 06:35:22;;;;;;;63.20;31.07;;;;;;;0.71;75.54;98771.36;2175776;82;21099;-78
2021/01/02 06:38:25;;;;;;;65.17;31.77;;;;;;;0.67;75.73;98783.58;2175805;82;21090;-78
2021/01/02 06:41:26;;;;;;;72.47;33.17;;;;;;;0.67;75.82;98770.73;2175756;82;21103;-79
2021/01/02 06:44:30;;;;;;;72.10;33.00;;;;;;;0.69;75.92;98776.83;2175565;82;21157;-79
2021/01/02 06:47:31;;;;;;;69.07;29.50;;;;;;;0.71;75.88;98766.23;2175755;82;21118;-79
2021/01/02 06:50:32;;;;;;;73.17;31.00;;;;;;;0.71;75.97;98768.39;2175398;82;21216;-79
2021/01/02 06:53:39;;;;;;;68.60;32.33;;;;;;;0.68;76.03;98771.21;2175600;82;21248;-78
2021/01/02 06:56:40;;;;;;;58.33;28.77;;;;;;;0.70;76.09;98768.31;2175409;82;21106;-78
2021/01/02 06:59:41;;;;;;;67.63;30.47;;;;;;;0.75;76.17;98765.56;2175808;82;21116;-78
2021/01/02 07:02:45;;;;;;;60.67;30.20;;;;;;;0.80;76.17;98771.41;2175390;82;21396;-78
2021/01/02 07:05:47;;;;;;;61.10;29.50;;;;;;;0.87;76.21;98779.92;2175477;82;21118;-78
2021/01/02 07:08:49;;;;;;;62.20;28.93;;;;;;;0.91;76.04;98774.53;2175313;82;21304;-79
2021/01/02 07:11:52;;;;;;;68.13;30.73;;;;;;;0.97;76.00;98765.83;2175725;82;21412;-78
2021/01/02 07:14:53;;;;;;;57.77;27.90;;;;;;;0.98;75.99;98775.30;2175750;82;21383;-78
2021/01/02 07:17:57;;;;;;;57.93;26.93;;;;;;;0.98;75.98;98777.88;2175669;82;21110;-78
2021/01/02 07:20:58;;;;;;;63.10;30.37;;;;;;;0.98;75.96;98776.98;2175685;82;21106;-78
2021/01/02 07:23:59;;;;;;;60.47;29.40;;;;;;;0.99;76.03;98782.61;2175245;82;21240;-79
2021/01/02 07:27:00;;;;;;;62.40;28.93;;;;;;;0.99;76.08;98791.61;2174980;82;21400;-79
2021/01/02 07:30:04;;;;;;;63.93;29.90;;;;;;;1.00;76.00;98795.94;2175338;82;21158;-79
2021/01/02 07:33:05;;;;;;;58.60;27.17;;;;;;;1.18;78.44;98787.41;2175780;82;21166;-80
2021/01/02 07:36:06;;;;;;;60.10;28.80;;;;;;;1.35;76.22;98794.64;2175466;82;21134;-78
2021/01/02 07:39:07;;;;;;;63.90;29.50;;;;;;;1.26;75.76;98795.09;2175561;82;21130;-78
2021/01/02 07:42:08;;;;;;;51.97;27.43;;;;;;;1.17;75.82;98798.91;2175230;82;21138;-78
2021/01/02 07:45:09;;;;;;;59.47;27.50;;;;;;;1.13;76.02;98800.86;2175478;82;21114;-78
2021/01/02 07:48:11;;;;;;;61.73;29.10;;;;;;;1.11;76.04;98809.78;2175550;82;21162;-79
2021/01/02 07:51:12;;;;;;;66.70;28.53;;;;;;;1.16;76.15;98808.31;2175711;82;21126;-79
2021/01/02 07:54:15;;;;;;;59.60;29.67;;;;;;;1.18;76.25;98809.27;2175779;82;21135;-78
2021/01/02 07:57:16;;;;;;;61.50;31.63;;;;;;;1.21;76.32;98808.53;2175432;82;21364;-78
2021/01/02 08:00:17;;;;;;;59.53;29.63;;;;;;;1.22;76.44;98800.02;2175523;82;21138;-79
2021/01/02 08:03:18;;;;;;;57.40;27.07;;;;;;;1.28;76.53;98805.45;2175253;82;21126;-79
2021/01/02 08:06:20;;;;;;;56.17;28.43;;;;;;;1.38;76.65;98806.76;2175865;82;21122;-79
2021/01/02 08:09:21;;;;;;;55.60;27.60;;;;;;;1.38;76.35;98809.33;2175556;82;21166;-79
2021/01/02 08:12:22;;;;;;;58.93;28.70;;;;;;;1.36;76.48;98804.52;2175733;82;21111;-79
2021/01/02 08:15:23;;;;;;;56.87;28.97;;;;;;;1.34;76.41;98804.45;2175516;82;21087;-79
2021/01/02 08:18:24;;;;;;;54.70;28.37;;;;;;;1.36;76.56;98813.52;2176170;82;21118;-79
2021/01/02 08:21:25;;;;;;;63.70;30.00;;;;;;;1.42;76.59;98822.81;2176219;82;21118;-79
2021/01/02 08:24:26;;;;;;;56.50;28.97;;;;;;;1.44;76.54;98821.20;2176040;82;21126;-79
2021/01/02 08:27:27;;;;;;;57.27;29.13;;;;;;;1.46;76.51;98826.89;2176042;82;21257;-78
2021/01/02 08:30:28;;;;;;;54.73;28.77;;;;;;;1.47;76.45;98826.48;2175916;82;21181;-78
2021/01/02 08:33:30;;;;;;;56.40;29.60;;;;;;;1.46;76.47;98821.74;2176144;81;21142;-79
2021/01/02 08:36:31;;;;;;;54.60;28.63;;;;;;;1.42;76.41;98820.24;2176114;82;21134;-78
2021/01/02 08:39:32;;;;;;;53.07;28.67;;;;;;;1.47;76.45;98825.20;2176079;82;21408;-79
2021/01/02 08:42:34;;;;;;;57.73;30.60;;;;;;;1.50;76.49;98836.91;2175753;82;21397;-80
2021/01/02 08:45:39;;;;;;;56.07;29.57;;;;;;;1.57;76.40;98836.39;2175934;82;21118;-80
2021/01/02 08:48:41;;;;;;;58.27;30.27;;;;;;;1.66;76.38;98849.69;2175824;81;21284;-79
2021/01/02 08:51:42;;;;;;;57.03;29.13;;;;;;;1.73;76.18;98844.02;2175524;82;21114;-79
2021/01/02 08:54:46;;;;;;;51.27;26.80;;;;;;;1.86;76.26;98853.22;2176135;82;21118;-80
2021/01/02 08:57:47;;;;;;;58.70;29.27;;;;;;;1.92;75.78;98853.49;2175526;82;21141;-80
2021/01/02 09:00:48;;;;;;;58.03;29.67;;;;;;;1.91;75.84;98847.47;2175932;82;21121;-80
2021/01/02 09:03:49;;;;;;;55.57;29.20;;;;;;;1.99;75.76;98852.08;2175808;82;21122;-80
2021/01/02 09:06:50;;;;;;;49.47;29.20;;;;;;;2.05;75.84;98849.78;2176073;82;21126;-80
2021/01/02 09:09:51;;;;;;;54.43;28.23;;;;;;;2.17;75.68;98847.76;2175661;82;21428;-80
2021/01/02 09:12:52;;;;;;;56.37;29.60;;;;;;;2.32;75.33;98848.44;2175447;82;21130;-81
2021/01/02 09:15:53;;;;;;;57.70;28.27;;;;;;;2.43;75.26;98849.78;2175783;82;21118;-80
2021/01/02 09:18:58;;;;;;;51.97;28.47;;;;;;;2.50;74.93;98859.55;2175960;82;21431;-80
2021/01/02 09:21:59;;;;;;;53.20;29.33;;;;;;;2.56;75.04;98856.35;2176006;82;21114;-81
2021/01/02 09:25:00;;;;;;;53.77;29.90;;;;;;;2.63;74.91;98861.39;2176292;82;21408;-80
2021/01/02 09:28:01;;;;;;;53.00;29.47;;;;;;;2.63;74.69;98866.55;2175766;82;21118;-80
2021/01/02 09:31:02;;;;;;;53.67;29.63;;;;;;;2.56;74.72;98868.83;2176520;82;21191;-78
2021/01/02 09:34:04;;;;;;;55.00;28.03;;;;;;;2.52;74.81;98861.78;2169629;81;21158;-80
2021/01/02 09:37:05;;;;;;;56.70;28.80;;;;;;;2.53;75.05;98857.51;2165727;82;21409;-80
2021/01/02 09:40:06;;;;;;;54.33;29.50;;;;;;;2.56;74.90;98857.23;2165269;82;21131;-81
2021/01/02 09:43:07;;;;;;;51.97;28.87;;;;;;;2.63;74.88;98857.13;2164937;82;21107;-80
2021/01/02 09:46:12;;;;;;;55.23;29.40;;;;;;;2.71;74.66;98861.31;2165544;82;21130;-80
2021/01/02 09:49:12;;;;;;;47.85;28.65;;;;;;;2.79;74.89;98859.95;2165466;82;21162;-79
2021/01/02 09:52:13;;;;;;;52.80;28.50;;;;;;;2.93;74.78;98858.83;2165584;82;21150;-79
2021/01/02 09:55:14;;;;;;;61.17;30.67;;;;;;;3.05;74.63;98856.77;2165420;82;21086;-79
2021/01/02 09:58:16;;;;;;;51.70;28.77;;;;;;;3.14;74.40;98851.98;2166004;82;21138;-79
2021/01/02 10:01:17;;;;;;;51.17;28.77;;;;;;;3.27;74.13;98852.48;2166140;82;21126;-80
2021/01/02 10:04:18;;;;;;;49.80;27.70;;;;;;;3.26;73.94;98850.31;2165638;82;21130;-79
2021/01/02 10:07:19;;;;;;;55.17;29.17;;;;;;;3.15;73.85;98861.89;2165017;82;21119;-78
2021/01/02 10:10:21;;;;;;;53.87;29.53;;;;;;;3.04;74.01;98856.29;2165324;82;21126;-80
2021/01/02 10:13:22;;;;;;;49.93;29.17;;;;;;;2.96;74.16;98851.63;2165652;82;21393;-80
2021/01/02 10:16:23;;;;;;;45.07;26.33;;;;;;;2.93;74.32;98860.53;2165560;82;21119;-81
2021/01/02 10:19:24;;;;;;;49.73;26.97;;;;;;;2.91;74.28;98855.31;2165419;82;21142;-79
2021/01/02 10:22:28;;;;;;;52.93;28.33;;;;;;;2.85;74.30;98856.34;2165680;82;21123;-80
2021/01/02 10:25:29;;;;;;;51.83;28.47;;;;;;;2.78;74.45;98850.45;2165603;82;21189;-81
2021/01/02 10:28:30;;;;;;;51.47;28.80;;;;;;;2.73;74.57;98844.22;2165797;82;21162;-80
2021/01/02 10:31:31;;;;;;;50.23;27.43;;;;;;;2.73;74.74;98845.52;2165800;82;21130;-81
2021/01/02 10:34:33;;;;;;;53.50;29.43;;;;;;;2.80;74.73;98849.70;2176821;81;21409;-80
2021/01/02 10:37:34;;;;;;;54.80;30.60;;;;;;;2.89;74.69;98847.92;2176362;82;21256;-80
2021/01/02 10:40:35;;;;;;;48.97;27.83;;;;;;;3.05;74.60;98848.14;2176155;82;21118;-79
2021/01/02 10:43:36;;;;;;;55.77;30.77;;;;;;;3.15;74.22;98847.30;2176432;82;21396;-79
2021/01/02 10:46:37;;;;;;;55.67;29.97;;;;;;;3.26;74.36;98848.14;2176908;82;21118;-79
2021/01/02 10:49:41;;;;;;;51.13;29.40;;;;;;;3.37;74.17;98845.58;2176353;82;21174;-79
2021/01/02 10:52:42;;;;;;;56.08;30.88;;;;;;;3.48;74.11;98841.76;2177299;82;21172;-79
2021/01/02 10:55:43;;;;;;;54.83;31.73;;;;;;;3.62;74.04;98843.17;2177274;82;21114;-79
2021/01/02 10:58:44;;;;;;;57.10;31.53;;;;;;;3.81;73.67;98840.48;2176808;82;21119;-79
2021/01/02 11:01:45;;;;;;;54.13;31.40;;;;;;;3.86;73.39;98832.03;2176663;82;21114;-79
2021/01/02 11:04:46;;;;;;;52.93;31.47;;;;;;;3.84;73.43;98833.27;2176226;82;21134;-80
2021/01/02 11:07:48;;;;;;;51.50;30.63;;;;;;;3.87;73.47;98834.67;2176690;82;21245;-79
2021/01/02 11:10:55;;;;;;;49.87;30.27;;;;;;;3.92;73.36;98823.22;2177039;82;21172;-79
2021/01/02 11:13:56;;;;;;;51.67;30.80;;;;;;;3.94;73.22;98827.63;2176475;82;21086;-79
2021/01/02 11:16:57;;;;;;;59.73;33.03;;;;;;;3.92;73.11;98820.64;2176570;82;21074;-79
2021/01/02 11:19:58;;;;;;;54.53;30.13;;;;;;;3.95;73.25;98820.76;2176394;82;21143;-78
2021/01/02 11:22:59;;;;;;;52.87;30.90;;;;;;;4.00;72.97;98821.80;2176243;82;21139;-79
2021/01/02 11:26:00;;;;;;;54.20;31.53;;;;;;;3.93;72.85;98815.53;2176296;82;21106;-80
2021/01/02 11:29:01;;;;;;;49.87;29.50;;;;;;;3.90;72.67;98824.87;2176510;82;21420;-80
2021/01/02 11:32:02;;;;;;;54.67;32.60;;;;;;;3.82;72.97;98816.42;2176815;82;21352;-79
2021/01/02 11:35:03;;;;;;;55.17;32.07;;;;;;;3.71;73.10;98816.84;2176379;82;21119;-79
2021/01/02 11:38:04;;;;;;;54.27;31.13;;;;;;;3.61;73.24;98818.19;2176209;82;21118;-79
2021/01/02 11:41:06;;;;;;;52.97;30.73;;;;;;;3.59;73.46;98822.41;2176091;82;21122;-78
2021/01/02 11:44:07;;;;;;;52.50;31.47;;;;;;;3.54;73.46;98817.89;2175442;82;21126;-78
2021/01/02 11:47:11;;;;;;;52.47;30.63;;;;;;;3.51;73.71;98814.78;2175421;82;21150;-77
2021/01/02 11:50:12;;;;;;;56.45;30.90;;;;;;;3.43;73.62;98814.45;2175769;82;21153;-78
2021/01/02 11:53:13;;;;;;;52.10;29.50;;;;;;;3.31;73.58;98813.09;2175763;82;21129;-78
2021/01/02 11:56:15;;;;;;;53.73;30.97;;;;;;;3.26;74.08;98805.58;2175047;82;21708;-78
2021/01/02 11:59:17;;;;;;;56.27;30.90;;;;;;;3.24;74.14;98802.05;2175531;82;21443;-79
2021/01/02 12:02:18;;;;;;;52.77;31.43;;;;;;;3.23;74.11;98802.88;2175396;82;21106;-79
2021/01/02 12:05:19;;;;;;;60.77;33.50;;;;;;;3.20;74.37;98807.09;2175514;82;21412;-79
2021/01/02 12:08:23;;;;;;;56.73;33.67;;;;;;;3.26;74.42;98809.44;2169021;81;21159;-80
2021/01/02 12:11:24;;;;;;;58.90;33.23;;;;;;;3.29;74.59;98810.45;2175827;81;21126;-79
2021/01/02 12:14:25;;;;;;;55.90;32.97;;;;;;;3.28;74.42;98808.69;2175427;82;21116;-79
2021/01/02 12:17:29;;;;;;;56.70;32.30;;;;;;;3.32;74.67;98812.27;2175786;82;21090;-79
2021/01/02 12:20:31;;;;;;;56.73;34.30;;;;;;;3.36;74.71;98813.73;2175541;82;21135;-80
2021/01/02 12:23:33;;;;;;;60.97;34.63;;;;;;;3.36;74.54;98816.73;2175505;82;21126;-79
2021/01/02 12:26:35;;;;;;;57.30;33.37;;;;;;;3.36;74.65;98823.17;2175847;82;21087;-78
2021/01/02 12:29:36;;;;;;;51.03;31.23;;;;;;;3.37;74.78;98822.36;2175875;81;21288;-78
2021/01/02 12:32:39;;;;;;;54.43;32.63;;;;;;;3.33;74.56;98813.62;2176320;81;21126;-79
2021/01/02 12:35:40;;;;;;;57.90;33.40;;;;;;;3.29;74.72;98805.28;2166867;82;21154;-79
2021/01/02 12:38:41;;;;;;;56.30;32.83;;;;;;;3.25;74.75;98805.10;2165584;82;21091;-79
2021/01/02 12:41:42;;;;;;;66.00;35.13;;;;;;;3.14;74.75;98802.09;2165746;82;21127;-80
2021/01/02 12:44:49;;;;;;;54.73;33.23;;;;;;;3.16;75.12;98800.05;2165632;82;21154;-80
2021/01/02 12:47:50;;;;;;;50.17;32.33;;;;;;;3.19;75.21;98800.17;2165963;82;21083;-81
2021/01/02 12:50:52;;;;;;;54.17;32.17;;;;;;;3.22;75.06;98800.70;2165654;82;21174;-79
2021/01/02 12:53:53;;;;;;;55.70;32.80;;;;;;;3.23;75.16;98804.16;2165639;82;21086;-79
2021/01/02 12:56:54;;;;;;;53.97;32.60;;;;;;;3.39;75.69;98807.41;2165681;82;21577;-79
2021/01/02 12:59:57;;;;;;;52.93;32.27;;;;;;;3.43;75.38;98804.53;2165718;82;21130;-79
2021/01/02 13:02:58;;;;;;;53.93;33.07;;;;;;;3.42;75.23;98805.36;2165751;81;21408;-78
2021/01/02 13:06:00;;;;;;;50.30;30.63;;;;;;;3.37;75.33;98804.30;2165408;82;21125;-78
2021/01/02 13:09:01;;;;;;;56.37;33.23;;;;;;;3.28;75.32;98807.39;2165451;81;21150;-79
2021/01/02 13:12:02;;;;;;;54.73;32.40;;;;;;;3.17;75.54;98804.80;2165690;82;21130;-78
2021/01/02 13:15:03;;;;;;;58.00;33.90;;;;;;;3.09;75.66;98805.78;2165633;82;21329;-78
2021/01/02 13:18:04;;;;;;;56.80;34.37;;;;;;;3.04;75.94;98811.16;2165284;82;21126;-79
2021/01/02 13:21:05;;;;;;;57.33;35.40;;;;;;;3.03;76.10;98818.42;2165439;82;21119;-79
2021/01/02 13:24:06;;;;;;;56.07;34.07;;;;;;;3.01;76.25;98829.09;2165679;82;21091;-78
2021/01/02 13:27:07;;;;;;;58.47;35.03;;;;;;;3.02;76.38;98821.82;2165366;82;21138;-79
2021/01/02 13:30:08;;;;;;;60.17;33.73;;;;;;;3.02;76.41;98820.53;2165698;82;21293;-79
2021/01/02 13:33:09;;;;;;;62.67;35.37;;;;;;;3.02;76.51;98816.66;2166258;81;21126;-79
2021/01/02 13:36:10;;;;;;;60.77;35.10;;;;;;;3.87;78.84;98818.30;2176504;82;21115;-79
2021/01/02 13:39:11;;;;;;;58.37;35.00;;;;;;;3.73;76.46;98810.91;2186184;81;21129;-79
2021/01/02 13:42:12;;;;;;;59.80;35.33;;;;;;;3.58;76.08;98824.52;2188424;81;21090;-78
2021/01/02 13:45:13;;;;;;;60.50;34.33;;;;;;;3.50;76.10;98823.34;2188199;81;21129;-78
2021/01/02 13:48:15;;;;;;;56.67;34.83;;;;;;;3.43;76.10;98829.05;2188271;81;21129;-79
2021/01/02 13:51:18;;;;;;;59.77;35.37;;;;;;;3.41;76.22;98838.43;2182462;81;21523;-78
2021/01/02 13:54:19;;;;;;;64.00;36.90;;;;;;;3.40;76.23;98843.13;2176100;82;21332;-79
2021/01/02 13:57:21;;;;;;;60.00;35.17;;;;;;;3.36;76.28;98838.66;2176091;82;21107;-78
2021/01/02 14:00:22;;;;;;;57.60;33.60;;;;;;;3.30;76.34;98838.41;2175708;82;21090;-78
2021/01/02 14:03:23;;;;;;;64.67;35.07;;;;;;;3.24;76.45;98842.92;2175621;82;21417;-78